createdAt,value
2018-07-02T00:00:12.881Z,19.00
2018-07-02T00:02:41.374Z,19.00
2018-07-02T00:05:09.945Z,18.90
2018-07-02T00:07:38.972Z,19.00
2018-07-02T00:10:09.288Z,18.90
2018-07-02T00:12:37.772Z,18.90
2018-07-02T00:15:06.421Z,18.90
2018-07-02T00:17:34.945Z,18.80
2018-07-02T00:20:03.330Z,18.70
2018-07-02T00:22:31.819Z,18.70
2018-07-02T00:25:00.278Z,18.70
2018-07-02T00:27:28.754Z,18.70
2018-07-02T00:29:57.312Z,18.70
2018-07-02T00:32:26.397Z,18.70
2018-07-02T00:34:54.856Z,18.60
2018-07-02T00:37:23.335Z,18.60
2018-07-02T00:39:51.807Z,18.60
2018-07-02T00:42:20.310Z,18.50
2018-07-02T00:44:48.789Z,18.50
2018-07-02T00:47:17.278Z,18.40
2018-07-02T00:49:45.750Z,18.40
2018-07-02T00:52:14.231Z,18.40
2018-07-02T00:54:42.694Z,18.40
2018-07-02T00:57:11.189Z,18.30
2018-07-02T00:59:39.672Z,18.30
2018-07-02T01:02:08.158Z,18.20
2018-07-02T01:04:36.622Z,18.20
2018-07-02T01:07:05.164Z,18.10
2018-07-02T01:09:33.622Z,18.00
2018-07-02T01:14:30.564Z,18.00
2018-07-02T01:16:59.004Z,17.90
2018-07-02T01:19:27.587Z,17.90
2018-07-02T01:21:56.031Z,17.80
2018-07-02T01:24:24.495Z,17.80
2018-07-02T01:26:52.968Z,17.70
2018-07-02T01:29:21.436Z,17.70
2018-07-02T01:31:49.956Z,17.70
2018-07-02T01:34:18.409Z,17.60
2018-07-02T01:36:46.873Z,17.60
2018-07-02T01:39:15.327Z,17.60
2018-07-02T01:41:44.130Z,17.50
2018-07-02T01:44:12.566Z,17.40
2018-07-02T01:46:41.038Z,17.40
2018-07-02T01:49:09.517Z,17.30
2018-07-02T01:51:37.981Z,17.30
2018-07-02T01:54:06.763Z,17.30
2018-07-02T01:56:36.019Z,17.30
2018-07-02T01:59:04.506Z,17.20
2018-07-02T02:01:32.982Z,17.10
2018-07-02T02:04:01.460Z,17.10
2018-07-02T02:06:29.928Z,17.10
2018-07-02T02:11:26.931Z,17.00
2018-07-02T02:13:55.389Z,17.00
2018-07-02T02:16:23.896Z,17.00
2018-07-02T02:18:52.371Z,16.90
2018-07-02T02:21:20.815Z,16.90
2018-07-02T02:23:49.286Z,16.90
2018-07-02T02:26:17.758Z,16.80
2018-07-02T02:28:46.570Z,16.80
2018-07-02T02:31:15.025Z,16.70
2018-07-02T02:33:43.461Z,16.70
2018-07-02T02:36:11.919Z,16.60
2018-07-02T02:38:40.737Z,16.50
2018-07-02T02:41:09.213Z,16.60
2018-07-02T02:43:37.739Z,16.50
2018-07-02T02:46:06.371Z,16.50
2018-07-02T02:48:34.822Z,16.50
2018-07-02T02:51:03.844Z,16.40
2018-07-02T02:53:32.330Z,16.50
2018-07-02T02:56:01.167Z,16.40
2018-07-02T02:58:29.623Z,16.40
2018-07-02T03:00:58.227Z,16.40
2018-07-02T03:03:26.695Z,16.40
2018-07-02T03:05:55.154Z,16.30
2018-07-02T03:08:23.604Z,16.30
2018-07-02T03:10:52.062Z,16.30
2018-07-02T03:13:20.504Z,16.30
2018-07-02T03:15:48.932Z,16.30
2018-07-02T03:18:17.417Z,16.30
2018-07-02T03:20:45.887Z,16.30
2018-07-02T03:23:14.375Z,16.30
2018-07-02T03:25:42.807Z,16.20
2018-07-02T03:28:11.288Z,16.20
2018-07-02T03:30:39.799Z,16.20
2018-07-02T03:33:08.237Z,16.20
2018-07-02T03:35:36.711Z,16.20
2018-07-02T03:38:05.296Z,16.20
2018-07-02T03:40:33.755Z,16.20
2018-07-02T03:43:02.229Z,16.20
2018-07-02T03:45:30.712Z,16.20
2018-07-02T03:47:59.168Z,16.20
2018-07-02T03:50:27.934Z,16.30
2018-07-02T03:52:56.414Z,16.30
2018-07-02T03:55:24.870Z,16.30
2018-07-02T03:57:53.335Z,16.30
2018-07-02T04:00:22.727Z,16.30
2018-07-02T04:02:51.167Z,16.30
2018-07-02T04:05:19.709Z,16.30
2018-07-02T04:07:48.165Z,16.30
2018-07-02T04:10:16.651Z,16.30
2018-07-02T04:12:45.182Z,16.30
2018-07-02T04:15:13.642Z,16.30
2018-07-02T04:17:42.118Z,16.30
2018-07-02T04:20:10.589Z,16.30
2018-07-02T04:22:40.055Z,16.30
2018-07-02T04:25:08.529Z,16.30
2018-07-02T04:27:37.115Z,16.30
2018-07-02T04:30:05.626Z,16.40
2018-07-02T04:32:34.098Z,16.40
2018-07-02T04:35:02.592Z,16.40
2018-07-02T04:37:31.061Z,16.40
2018-07-02T04:39:59.596Z,16.40
2018-07-02T04:42:28.065Z,16.40
2018-07-02T04:44:56.527Z,16.50
2018-07-02T04:47:25.330Z,16.50
2018-07-02T04:49:53.812Z,16.50
2018-07-02T04:52:22.352Z,16.50
2018-07-02T04:54:50.779Z,16.40
2018-07-02T04:57:19.248Z,16.50
2018-07-02T04:59:47.557Z,16.50
2018-07-02T05:02:15.954Z,16.60
2018-07-02T05:04:44.237Z,16.50
2018-07-02T05:07:12.507Z,16.60
2018-07-02T05:09:40.765Z,16.60
2018-07-02T05:12:10.872Z,16.60
2018-07-02T05:14:40.111Z,16.60
2018-07-02T05:17:08.734Z,16.70
2018-07-02T05:19:37.050Z,16.70
2018-07-02T05:22:05.322Z,16.80
2018-07-02T05:24:33.626Z,16.80
2018-07-02T05:27:01.936Z,16.90
2018-07-02T05:29:30.232Z,17.00
2018-07-02T05:31:58.533Z,17.10
2018-07-02T05:34:26.779Z,17.20
2018-07-02T05:36:55.420Z,17.30
2018-07-02T05:39:24.018Z,17.40
2018-07-02T05:41:52.721Z,17.50
2018-07-02T05:44:21.030Z,17.60
2018-07-02T05:46:49.309Z,17.70
2018-07-02T05:49:17.581Z,17.90
2018-07-02T05:51:45.836Z,18.00
2018-07-02T05:54:14.458Z,18.00
2018-07-02T05:56:42.792Z,18.20
2018-07-02T05:59:11.524Z,18.40
2018-07-02T06:01:39.778Z,18.60
2018-07-02T06:04:11.200Z,18.60
2018-07-02T06:06:39.496Z,18.80
2018-07-02T06:11:45.584Z,19.10
2018-07-02T06:14:13.880Z,19.30
2018-07-02T06:16:42.189Z,19.40
2018-07-02T06:19:10.652Z,19.60
2018-07-02T06:21:38.949Z,19.60
2018-07-02T06:24:07.435Z,19.80
2018-07-02T06:26:35.729Z,20.10
2018-07-02T06:29:04.007Z,20.30
2018-07-02T06:31:32.839Z,20.50
2018-07-02T06:34:05.063Z,20.70
2018-07-02T06:36:43.423Z,20.80
2018-07-02T06:39:12.267Z,21.10
2018-07-02T06:41:41.182Z,21.30
2018-07-02T06:44:10.031Z,21.20
2018-07-02T06:46:38.874Z,21.30
2018-07-02T06:49:07.735Z,21.50
2018-07-02T06:51:36.582Z,21.60
2018-07-02T06:54:06.258Z,21.90
2018-07-02T06:56:35.156Z,21.70
2018-07-02T06:59:04.183Z,21.90
2018-07-02T07:01:33.332Z,22.10
2018-07-02T07:04:01.940Z,22.00
2018-07-02T07:06:30.764Z,22.00
2018-07-02T07:08:59.576Z,22.20
2018-07-02T07:11:28.399Z,22.20
2018-07-02T07:13:57.599Z,22.30
2018-07-02T07:16:26.425Z,22.50
2018-07-02T07:21:23.908Z,22.60
2018-07-02T07:26:24.587Z,22.80
2018-07-02T07:29:02.830Z,23.10
2018-07-02T07:31:31.751Z,23.20
2018-07-02T07:34:00.659Z,23.30
2018-07-02T07:38:58.361Z,23.30
2018-07-02T07:41:27.273Z,23.40
2018-07-02T07:43:56.236Z,23.40
2018-07-02T07:46:25.376Z,23.30
2018-07-02T07:48:54.367Z,23.30
2018-07-02T07:51:23.276Z,23.10
2018-07-02T07:53:52.263Z,23.20
2018-07-02T07:56:21.268Z,23.40
2018-07-02T08:05:35.115Z,23.60
2018-07-02T08:08:04.033Z,23.70
2018-07-02T08:10:33.102Z,23.80
2018-07-02T08:13:02.121Z,23.70
2018-07-02T08:15:30.980Z,23.80
2018-07-02T08:17:59.846Z,24.00
2018-07-02T08:20:29.011Z,23.90
2018-07-02T08:22:58.319Z,23.80
2018-07-02T08:25:27.211Z,23.90
2018-07-02T08:27:56.098Z,23.90
2018-07-02T08:30:24.990Z,23.90
2018-07-02T08:32:53.959Z,23.90
2018-07-02T08:35:23.027Z,24.00
2018-07-02T08:37:51.932Z,24.10
2018-07-02T08:40:20.778Z,23.90
2018-07-02T08:42:49.700Z,24.00
2018-07-02T08:45:19.083Z,24.10
2018-07-02T08:47:48.052Z,24.00
2018-07-02T08:50:16.973Z,24.10
2018-07-02T08:52:45.829Z,24.30
2018-07-02T08:55:14.871Z,24.20
2018-07-02T08:57:43.729Z,24.00
2018-07-02T09:00:13.272Z,24.10
2018-07-02T09:02:42.176Z,24.30
2018-07-02T09:05:10.864Z,24.50
2018-07-02T09:07:39.843Z,24.60
2018-07-02T09:10:08.825Z,24.60
2018-07-02T09:12:37.852Z,24.60
2018-07-02T09:15:07.079Z,24.70
2018-07-02T09:17:44.605Z,24.80
2018-07-02T09:20:13.472Z,24.60
2018-07-02T09:24:11.623Z,24.50
2018-07-02T09:26:40.561Z,24.70
2018-07-02T09:29:12.721Z,24.90
2018-07-02T09:31:41.746Z,25.00
2018-07-02T09:34:11.207Z,25.20
2018-07-02T09:36:40.561Z,25.10
2018-07-02T09:39:11.969Z,24.90
2018-07-02T09:41:41.008Z,24.80
2018-07-02T09:44:09.893Z,24.80
2018-07-02T09:46:38.843Z,24.70
2018-07-02T09:49:07.873Z,24.70
2018-07-02T09:51:36.704Z,24.70
2018-07-02T09:54:05.900Z,24.80
2018-07-02T09:56:34.748Z,24.70
2018-07-02T09:59:03.670Z,24.80
2018-07-02T10:01:41.817Z,24.70
2018-07-02T10:04:10.719Z,24.80
2018-07-02T10:06:39.653Z,25.10
2018-07-02T10:09:10.981Z,25.10
2018-07-02T10:11:39.858Z,25.20
2018-07-02T10:14:08.832Z,25.10
2018-07-02T10:16:37.742Z,25.10
2018-07-02T10:19:06.985Z,25.10
2018-07-02T10:21:36.161Z,25.30
2018-07-02T10:26:33.854Z,25.50
2018-07-02T10:29:02.821Z,25.70
2018-07-02T10:31:31.889Z,25.90
2018-07-02T10:34:00.809Z,26.00
2018-07-02T10:36:29.739Z,26.00
2018-07-02T10:38:58.617Z,26.10
2018-07-02T10:41:27.517Z,26.10
2018-07-02T10:43:56.365Z,26.20
2018-07-02T10:46:25.306Z,26.20
2018-07-02T10:48:54.148Z,26.30
2018-07-02T10:51:23.040Z,26.40
2018-07-02T10:53:52.186Z,26.30
2018-07-02T10:56:21.016Z,26.30
2018-07-02T11:01:18.744Z,26.10
2018-07-02T11:03:47.815Z,26.10
2018-07-02T11:06:16.851Z,26.30
2018-07-02T11:08:46.380Z,26.50
2018-07-02T11:11:15.435Z,26.60
2018-07-02T11:16:12.986Z,26.50
2018-07-02T11:18:41.857Z,26.70
2018-07-02T11:21:10.694Z,26.80
2018-07-02T11:23:39.562Z,26.60
2018-07-02T11:26:08.562Z,26.70
2018-07-02T11:28:37.452Z,26.50
2018-07-02T11:31:06.379Z,26.20
2018-07-02T11:33:35.175Z,26.40
2018-07-02T11:36:04.005Z,26.60
2018-07-02T11:38:32.833Z,26.80
2018-07-02T11:41:02.170Z,27.00
2018-07-02T11:43:40.411Z,27.00
2018-07-02T11:46:09.223Z,26.90
2018-07-02T11:48:38.092Z,27.10
2018-07-02T11:51:07.239Z,27.30
2018-07-02T11:53:36.049Z,27.10
2018-07-02T11:56:04.912Z,27.30
2018-07-02T11:58:33.762Z,27.40
2018-07-02T12:01:02.583Z,27.50
2018-07-02T12:03:31.018Z,27.60
2018-07-02T12:05:59.832Z,27.50
2018-07-02T12:08:28.612Z,27.60
2018-07-02T12:10:57.475Z,27.60
2018-07-02T12:13:26.293Z,27.70
2018-07-02T12:15:55.083Z,27.80
2018-07-02T12:18:24.159Z,27.90
2018-07-02T12:20:52.956Z,28.00
2018-07-02T12:23:22.031Z,28.20
2018-07-02T12:25:50.854Z,28.20
2018-07-02T12:28:19.727Z,28.30
2018-07-02T12:30:48.750Z,28.30
2018-07-02T12:33:17.591Z,28.40
2018-07-02T12:35:46.760Z,28.50
2018-07-02T12:38:15.587Z,28.60
2018-07-02T12:40:44.407Z,28.60
2018-07-02T12:43:12.971Z,28.50
2018-07-02T12:45:41.827Z,28.50
2018-07-02T12:48:10.645Z,28.50
2018-07-02T12:50:39.447Z,28.40
2018-07-02T12:53:08.288Z,28.50
2018-07-02T12:55:36.871Z,28.50
2018-07-02T12:58:05.719Z,28.50
2018-07-02T13:00:34.512Z,28.50
2018-07-02T13:03:03.384Z,28.50
2018-07-02T13:05:31.903Z,28.40
2018-07-02T13:08:00.723Z,28.60
2018-07-02T13:10:29.549Z,28.70
2018-07-02T13:12:58.114Z,28.70
2018-07-02T13:15:26.904Z,28.90
2018-07-02T13:17:55.721Z,28.90
2018-07-02T13:20:24.819Z,29.00
2018-07-02T13:22:53.672Z,29.10
2018-07-02T13:25:22.818Z,29.00
2018-07-02T13:27:51.432Z,29.00
2018-07-02T13:33:11.334Z,28.80
2018-07-02T13:35:40.175Z,28.60
2018-07-02T13:38:09.363Z,28.80
2018-07-02T13:40:38.283Z,28.90
2018-07-02T13:45:35.728Z,29.00
2018-07-02T13:48:04.815Z,29.00
2018-07-02T13:50:33.728Z,29.10
2018-07-02T13:53:03.209Z,28.90
2018-07-02T13:55:31.806Z,29.10
2018-07-02T13:58:00.419Z,29.20
2018-07-02T14:00:29.230Z,29.40
2018-07-02T14:02:57.754Z,29.40
2018-07-02T14:05:26.276Z,29.50
2018-07-02T14:07:55.153Z,29.50
2018-07-02T14:10:23.707Z,29.50
2018-07-02T14:12:52.284Z,29.50
2018-07-02T14:15:21.688Z,29.40
2018-07-02T14:17:50.758Z,29.50
2018-07-02T14:22:47.832Z,29.70
2018-07-02T14:25:16.753Z,29.60
2018-07-02T14:27:45.484Z,29.80
2018-07-02T15:38:56.627Z,34.50
2018-07-02T15:41:25.209Z,34.80
2018-07-02T15:43:54.006Z,34.90
2018-07-02T15:46:22.616Z,34.90
2018-07-02T15:48:51.252Z,35.10
2018-07-02T15:51:19.792Z,35.20
2018-07-02T15:53:48.391Z,35.10
2018-07-02T15:56:17.009Z,35.30
2018-07-02T15:58:45.560Z,35.30
2018-07-02T16:01:14.195Z,35.40
2018-07-02T16:03:42.780Z,35.30
2018-07-02T16:06:11.369Z,35.10
2018-07-02T16:08:39.989Z,35.40
2018-07-02T16:11:08.593Z,35.50
2018-07-02T16:13:37.251Z,35.50
2018-07-02T16:16:05.992Z,35.70
2018-07-02T16:18:34.639Z,35.90
2018-07-02T16:21:03.179Z,36.10
2018-07-02T16:23:31.760Z,36.30
2018-07-02T16:26:00.436Z,36.60
2018-07-02T16:28:28.962Z,36.50
2018-07-02T16:30:57.522Z,36.80
2018-07-02T16:33:26.075Z,37.10
2018-07-02T16:35:54.633Z,37.50
2018-07-02T16:38:23.209Z,37.80
2018-07-02T16:40:51.853Z,37.80
2018-07-02T16:43:20.746Z,37.60
2018-07-02T16:45:49.685Z,37.10
2018-07-02T16:48:18.299Z,37.40
2018-07-02T16:50:46.991Z,37.70
2018-07-02T16:53:18.906Z,37.70
2018-07-02T16:55:47.781Z,38.10
2018-07-02T17:01:09.581Z,38.40
2018-07-02T17:03:38.185Z,38.50
2018-07-02T17:06:06.770Z,38.10
2018-07-02T17:11:04.069Z,36.50
2018-07-02T17:13:32.871Z,36.00
2018-07-02T17:16:01.761Z,35.00
2018-07-02T17:18:30.575Z,33.90
2018-07-02T17:20:59.137Z,33.20
2018-07-02T17:23:28.017Z,32.50
2018-07-02T17:25:56.852Z,31.60
2018-07-02T17:28:25.487Z,30.80
2018-07-02T17:33:28.283Z,29.60
2018-07-02T17:35:59.926Z,29.20
2018-07-02T17:38:37.728Z,28.80
2018-07-02T17:43:41.208Z,28.10
2018-07-02T17:46:09.806Z,27.80
2018-07-02T17:48:38.394Z,27.70
2018-07-02T17:51:07.623Z,27.50
2018-07-02T17:53:36.516Z,27.30
2018-07-02T17:56:05.904Z,27.20
2018-07-02T17:58:34.773Z,27.00
2018-07-02T18:01:03.756Z,26.90
2018-07-02T18:06:01.036Z,26.60
2018-07-02T18:08:30.265Z,26.50
2018-07-02T18:10:59.355Z,26.30
2018-07-02T18:13:28.205Z,26.10
2018-07-02T18:15:57.032Z,26.00
2018-07-02T18:18:25.942Z,26.00
2018-07-02T18:23:23.369Z,25.80
2018-07-02T18:25:52.398Z,25.70
2018-07-02T18:28:21.606Z,25.50
2018-07-02T18:30:50.482Z,25.40
2018-07-02T18:33:19.813Z,25.30
2018-07-02T18:35:48.677Z,25.00
2018-07-02T18:38:17.497Z,24.90
2018-07-02T18:40:46.368Z,24.70
2018-07-02T18:43:15.245Z,24.60
2018-07-02T18:45:44.269Z,24.50
2018-07-02T18:48:13.455Z,24.50
2018-07-02T18:50:42.322Z,24.30
2018-07-02T18:53:11.182Z,24.00
2018-07-02T18:55:40.353Z,23.80
2018-07-02T18:58:09.192Z,23.70
2018-07-02T19:00:44.154Z,23.60
2018-07-02T19:03:12.998Z,23.50
2018-07-02T19:05:41.921Z,23.40
2018-07-02T19:08:14.242Z,23.20
2018-07-02T19:10:43.157Z,23.00
2018-07-02T19:13:21.533Z,23.00
2018-07-02T19:15:50.861Z,22.80
2018-07-02T19:18:19.781Z,22.80
2018-07-02T19:20:48.877Z,22.70
2018-07-02T19:23:21.126Z,22.50
2018-07-02T19:25:51.256Z,22.40
2018-07-02T19:30:55.349Z,22.20
2018-07-02T19:33:24.704Z,22.00
2018-07-02T19:35:53.624Z,21.90
2018-07-02T19:38:22.499Z,21.80
2018-07-02T19:40:51.452Z,21.70
2018-07-02T19:43:20.677Z,21.60
2018-07-02T19:45:51.042Z,21.50
2018-07-02T19:48:30.043Z,21.40
2018-07-02T19:50:59.210Z,21.30
2018-07-02T19:53:28.623Z,21.30
2018-07-02T19:55:58.436Z,21.20
2018-07-02T19:58:28.059Z,21.10
2018-07-02T20:00:58.030Z,21.10
2018-07-02T20:03:27.579Z,21.00
2018-07-02T20:05:56.602Z,20.90
2018-07-02T20:08:25.899Z,20.80
2018-07-02T20:10:56.021Z,20.70
2018-07-02T20:13:25.192Z,20.60
2018-07-02T20:15:54.505Z,20.60
2018-07-02T20:18:23.566Z,20.50
2018-07-02T20:20:52.888Z,20.50
2018-07-02T20:23:21.841Z,20.40
2018-07-02T20:25:50.318Z,20.30
2018-07-02T20:28:21.969Z,20.30
2018-07-02T20:30:50.423Z,20.20
2018-07-02T20:35:47.082Z,20.10
2018-07-02T20:38:15.772Z,20.00
2018-07-02T20:40:45.157Z,20.00
2018-07-02T20:43:15.188Z,19.90
2018-07-02T20:45:46.439Z,19.90
2018-07-02T20:48:15.375Z,19.90
2018-07-02T20:50:44.198Z,19.80
2018-07-02T20:53:13.683Z,19.80
2018-07-02T20:58:13.647Z,19.70
2018-07-02T21:00:42.465Z,19.70
2018-07-02T21:03:10.872Z,19.60
2018-07-02T21:05:39.281Z,19.60
2018-07-02T21:08:08.863Z,19.60
2018-07-02T21:10:37.795Z,19.50
2018-07-02T21:13:06.713Z,19.50
2018-07-02T21:15:35.116Z,19.40
2018-07-02T21:18:04.237Z,19.40
2018-07-02T21:20:33.533Z,19.30
2018-07-02T21:23:03.454Z,19.30
2018-07-02T21:25:32.000Z,19.20
2018-07-02T21:28:01.097Z,19.20
2018-07-02T21:30:29.800Z,19.20
2018-07-02T21:32:58.440Z,19.10
2018-07-02T21:35:26.732Z,19.10
2018-07-02T21:37:55.128Z,19.00
2018-07-02T21:40:23.421Z,19.00
2018-07-02T21:42:51.885Z,19.00
2018-07-02T21:45:20.221Z,19.00
2018-07-02T21:47:48.726Z,19.00
2018-07-02T21:50:17.276Z,19.00
2018-07-02T21:52:45.675Z,18.90
2018-07-02T21:55:14.279Z,18.90
2018-07-02T21:57:42.544Z,18.80
2018-07-02T22:00:12.931Z,18.80
2018-07-02T22:02:41.219Z,18.80
2018-07-02T22:05:10.235Z,18.80
2018-07-02T22:07:39.826Z,18.80
2018-07-02T22:10:08.509Z,18.80
2018-07-02T22:12:36.823Z,18.70
2018-07-02T22:15:05.392Z,18.70
2018-07-02T22:17:33.807Z,18.70
2018-07-02T22:20:02.213Z,18.70
2018-07-02T22:22:31.114Z,18.60
2018-07-02T22:24:59.481Z,18.60
2018-07-02T22:27:27.838Z,18.60
2018-07-02T22:29:56.734Z,18.50
2018-07-02T22:32:25.159Z,18.50
2018-07-02T22:34:53.614Z,18.50
2018-07-02T22:37:21.882Z,18.40
2018-07-02T22:39:50.518Z,18.40
2018-07-02T22:42:18.806Z,18.40
2018-07-02T22:44:47.069Z,18.40
2018-07-02T22:47:15.372Z,18.30
2018-07-02T22:49:43.711Z,18.30
2018-07-02T22:52:12.277Z,18.20
2018-07-02T22:54:40.608Z,18.20
2018-07-02T22:57:08.885Z,18.20
2018-07-02T22:59:37.136Z,18.20
2018-07-02T23:02:05.402Z,18.20
2018-07-02T23:04:33.657Z,18.00
2018-07-02T23:07:01.952Z,18.00
2018-07-02T23:09:30.381Z,18.00
2018-07-02T23:11:58.665Z,18.00
2018-07-02T23:14:26.915Z,17.90
2018-07-02T23:16:55.189Z,17.90
2018-07-02T23:19:23.494Z,17.90
2018-07-02T23:21:51.807Z,17.90
2018-07-02T23:24:20.054Z,17.80
2018-07-02T23:26:48.495Z,17.80
2018-07-02T23:29:16.777Z,17.80
2018-07-02T23:31:45.331Z,17.80
2018-07-02T23:34:13.563Z,17.80
2018-07-02T23:36:41.817Z,17.70
2018-07-02T23:39:11.846Z,17.70
2018-07-02T23:41:40.546Z,17.70
2018-07-02T23:44:08.883Z,17.60
2018-07-02T23:46:37.158Z,17.60
2018-07-02T23:49:06.008Z,17.60
2018-07-02T23:51:34.273Z,17.50
2018-07-02T23:54:02.526Z,17.60
2018-07-02T23:56:30.838Z,17.50
2018-07-02T23:58:59.106Z,17.50
